sensor_id;sensor_type;location;lat;lon;timestamp;temperature;humidity
12130;DHT22;6128;59.340;18.040;2022-10-16T00:00:49;13.40;99.90
12130;DHT22;6128;59.340;18.040;2022-10-16T00:03:16;13.40;99.90
12130;DHT22;6128;59.340;18.040;2022-10-16T00:05:43;13.40;99.90
12130;DHT22;6128;59.340;18.040;2022-10-16T00:08:11;13.30;99.90
12130;DHT22;6128;59.340;18.040;2022-10-16T00:10:40;13.30;99.90
12130;DHT22;6128;59.340;18.040;2022-10-16T00:13:08;13.30;99.90
12130;DHT22;6128;59.340;18.040;2022-10-16T00:15:36;13.30;99.90
12130;DHT22;6128;59.340;18.040;2022-10-16T00:18:05;13.30;99.90
12130;DHT22;6128;59.340;18.040;2022-10-16T00:20:34;13.30;99.90
12130;DHT22;6128;59.340;18.040;2022-10-16T00:23:02;13.30;99.90
12130;DHT22;6128;59.340;18.040;2022-10-16T00:25:30;13.30;99.90
12130;DHT22;6128;59.340;18.040;2022-10-16T00:28:01;13.30;99.90
12130;DHT22;6128;59.340;18.040;2022-10-16T00:30:27;13.30;99.90
12130;DHT22;6128;59.340;18.040;2022-10-16T00:32:54;13.30;99.90
12130;DHT22;6128;59.340;18.040;2022-10-16T00:35:21;13.30;99.90
12130;DHT22;6128;59.340;18.040;2022-10-16T00:37:49;13.30;99.90
12130;DHT22;6128;59.340;18.040;2022-10-16T00:40:16;13.30;99.90
12130;DHT22;6128;59.340;18.040;2022-10-16T00:42:43;13.30;99.90
12130;DHT22;6128;59.340;18.040;2022-10-16T00:45:12;13.30;99.90
12130;DHT22;6128;59.340;18.040;2022-10-16T00:47:41;13.30;99.90
12130;DHT22;6128;59.340;18.040;2022-10-16T00:50:16;13.30;99.90
12130;DHT22;6128;59.340;18.040;2022-10-16T00:52:47;13.30;99.90
12130;DHT22;6128;59.340;18.040;2022-10-16T00:55:15;13.30;99.90
12130;DHT22;6128;59.340;18.040;2022-10-16T00:57:44;13.30;99.90
12130;DHT22;6128;59.340;18.040;2022-10-16T01:00:16;13.30;99.90
12130;DHT22;6128;59.340;18.040;2022-10-16T01:02:44;13.20;99.90
12130;DHT22;6128;59.340;18.040;2022-10-16T01:05:11;13.20;99.90
12130;DHT22;6128;59.340;18.040;2022-10-16T01:07:47;13.20;99.90
12130;DHT22;6128;59.340;18.040;2022-10-16T01:10:24;13.20;99.90
12130;DHT22;6128;59.340;18.040;2022-10-16T01:12:59;13.10;99.90
12130;DHT22;6128;59.340;18.040;2022-10-16T01:15:32;13.10;99.90
12130;DHT22;6128;59.340;18.040;2022-10-16T01:18:05;13.10;99.90
12130;DHT22;6128;59.340;18.040;2022-10-16T01:20:37;13.10;99.90
12130;DHT22;6128;59.340;18.040;2022-10-16T01:23:15;13.10;99.90
12130;DHT22;6128;59.340;18.040;2022-10-16T01:26:02;13.10;99.90
12130;DHT22;6128;59.340;18.040;2022-10-16T01:28:39;13.10;99.90
12130;DHT22;6128;59.340;18.040;2022-10-16T01:31:09;13.10;99.90
12130;DHT22;6128;59.340;18.040;2022-10-16T01:33:41;13.10;99.90
12130;DHT22;6128;59.340;18.040;2022-10-16T01:36:11;13.10;99.90
12130;DHT22;6128;59.340;18.040;2022-10-16T01:38:40;13.10;99.90
12130;DHT22;6128;59.340;18.040;2022-10-16T01:41:10;13.10;99.90
12130;DHT22;6128;59.340;18.040;2022-10-16T01:43:43;13.10;99.90
12130;DHT22;6128;59.340;18.040;2022-10-16T01:46:13;13.10;99.90
12130;DHT22;6128;59.340;18.040;2022-10-16T01:48:42;13.10;99.90
12130;DHT22;6128;59.340;18.040;2022-10-16T01:51:11;13.10;99.90
12130;DHT22;6128;59.340;18.040;2022-10-16T01:53:40;13.10;99.90
12130;DHT22;6128;59.340;18.040;2022-10-16T01:56:09;13.10;99.90
12130;DHT22;6128;59.340;18.040;2022-10-16T01:58:41;13.10;99.90
12130;DHT22;6128;59.340;18.040;2022-10-16T02:01:11;13.10;99.90
12130;DHT22;6128;59.340;18.040;2022-10-16T02:03:41;13.10;99.90
12130;DHT22;6128;59.340;18.040;2022-10-16T02:06:10;13.10;99.90
12130;DHT22;6128;59.340;18.040;2022-10-16T02:08:37;13.10;99.90
12130;DHT22;6128;59.340;18.040;2022-10-16T02:11:06;13.10;99.90
12130;DHT22;6128;59.340;18.040;2022-10-16T02:13:37;13.10;99.90
12130;DHT22;6128;59.340;18.040;2022-10-16T02:16:08;13.10;99.90
12130;DHT22;6128;59.340;18.040;2022-10-16T02:18:36;13.10;99.90
12130;DHT22;6128;59.340;18.040;2022-10-16T02:21:10;13.10;99.90
12130;DHT22;6128;59.340;18.040;2022-10-16T02:23:45;13.10;99.90
12130;DHT22;6128;59.340;18.040;2022-10-16T02:26:20;13.10;99.90
12130;DHT22;6128;59.340;18.040;2022-10-16T02:28:54;13.10;99.90
12130;DHT22;6128;59.340;18.040;2022-10-16T02:31:27;13.10;99.90
12130;DHT22;6128;59.340;18.040;2022-10-16T02:33:57;13.10;99.90
12130;DHT22;6128;59.340;18.040;2022-10-16T02:36:26;13.10;99.90
12130;DHT22;6128;59.340;18.040;2022-10-16T02:38:53;13.10;99.90
12130;DHT22;6128;59.340;18.040;2022-10-16T02:41:21;13.10;99.90
12130;DHT22;6128;59.340;18.040;2022-10-16T02:43:48;13.20;99.90
12130;DHT22;6128;59.340;18.040;2022-10-16T02:46:17;13.20;99.90
12130;DHT22;6128;59.340;18.040;2022-10-16T02:48:45;13.20;99.90
12130;DHT22;6128;59.340;18.040;2022-10-16T02:51:12;13.20;99.90
12130;DHT22;6128;59.340;18.040;2022-10-16T02:53:39;13.20;99.90
12130;DHT22;6128;59.340;18.040;2022-10-16T02:56:07;13.20;99.90
12130;DHT22;6128;59.340;18.040;2022-10-16T02:58:34;13.20;99.90
12130;DHT22;6128;59.340;18.040;2022-10-16T03:01:00;13.20;99.90
12130;DHT22;6128;59.340;18.040;2022-10-16T03:03:28;13.20;99.90
12130;DHT22;6128;59.340;18.040;2022-10-16T03:05:56;13.20;99.90
12130;DHT22;6128;59.340;18.040;2022-10-16T03:08:23;13.20;99.90
12130;DHT22;6128;59.340;18.040;2022-10-16T03:10:51;13.20;99.90
12130;DHT22;6128;59.340;18.040;2022-10-16T03:13:18;13.20;99.90
12130;DHT22;6128;59.340;18.040;2022-10-16T03:15:47;13.20;99.90
12130;DHT22;6128;59.340;18.040;2022-10-16T03:18:14;13.20;99.90
12130;DHT22;6128;59.340;18.040;2022-10-16T03:20:42;13.20;99.90
12130;DHT22;6128;59.340;18.040;2022-10-16T03:23:11;13.20;99.90
12130;DHT22;6128;59.340;18.040;2022-10-16T03:25:38;13.10;99.90
12130;DHT22;6128;59.340;18.040;2022-10-16T03:28:05;13.10;99.90
12130;DHT22;6128;59.340;18.040;2022-10-16T03:30:32;13.10;99.90
12130;DHT22;6128;59.340;18.040;2022-10-16T03:32:59;13.00;99.90
12130;DHT22;6128;59.340;18.040;2022-10-16T03:35:26;13.00;99.90
12130;DHT22;6128;59.340;18.040;2022-10-16T03:37:53;13.00;99.90
12130;DHT22;6128;59.340;18.040;2022-10-16T03:40:21;13.00;99.90
12130;DHT22;6128;59.340;18.040;2022-10-16T03:42:48;13.00;99.90
12130;DHT22;6128;59.340;18.040;2022-10-16T03:45:16;12.90;99.90
12130;DHT22;6128;59.340;18.040;2022-10-16T03:47:43;13.00;99.90
12130;DHT22;6128;59.340;18.040;2022-10-16T03:50:10;12.90;99.90
12130;DHT22;6128;59.340;18.040;2022-10-16T03:52:37;12.90;99.90
12130;DHT22;6128;59.340;18.040;2022-10-16T03:55:05;12.80;99.90
12130;DHT22;6128;59.340;18.040;2022-10-16T03:57:33;12.80;99.90
12130;DHT22;6128;59.340;18.040;2022-10-16T04:00:00;12.80;99.90
12130;DHT22;6128;59.340;18.040;2022-10-16T04:02:27;12.80;99.90
12130;DHT22;6128;59.340;18.040;2022-10-16T04:04:54;12.80;99.90
12130;DHT22;6128;59.340;18.040;2022-10-16T04:07:21;12.80;99.90
12130;DHT22;6128;59.340;18.040;2022-10-16T04:09:48;12.80;99.90
12130;DHT22;6128;59.340;18.040;2022-10-16T04:12:17;12.70;99.90
12130;DHT22;6128;59.340;18.040;2022-10-16T04:14:46;12.70;99.90
12130;DHT22;6128;59.340;18.040;2022-10-16T04:17:13;12.70;99.90
12130;DHT22;6128;59.340;18.040;2022-10-16T04:19:40;12.70;99.90
12130;DHT22;6128;59.340;18.040;2022-10-16T04:22:07;12.70;99.90
12130;DHT22;6128;59.340;18.040;2022-10-16T04:24:34;12.70;99.90
12130;DHT22;6128;59.340;18.040;2022-10-16T04:27:01;12.70;99.90
12130;DHT22;6128;59.340;18.040;2022-10-16T04:29:28;12.70;99.90
12130;DHT22;6128;59.340;18.040;2022-10-16T04:31:57;12.80;99.90
12130;DHT22;6128;59.340;18.040;2022-10-16T04:34:24;12.70;99.90
12130;DHT22;6128;59.340;18.040;2022-10-16T04:36:51;12.70;99.90
12130;DHT22;6128;59.340;18.040;2022-10-16T04:39:18;12.70;99.90
12130;DHT22;6128;59.340;18.040;2022-10-16T04:41:45;12.60;99.90
12130;DHT22;6128;59.340;18.040;2022-10-16T04:44:12;12.60;99.90
12130;DHT22;6128;59.340;18.040;2022-10-16T04:46:39;12.60;99.90
12130;DHT22;6128;59.340;18.040;2022-10-16T04:49:08;12.60;99.90
12130;DHT22;6128;59.340;18.040;2022-10-16T04:51:35;12.60;99.90
12130;DHT22;6128;59.340;18.040;2022-10-16T04:54:02;12.50;99.90
12130;DHT22;6128;59.340;18.040;2022-10-16T04:56:29;12.50;99.90
12130;DHT22;6128;59.340;18.040;2022-10-16T04:58:56;12.50;99.90
12130;DHT22;6128;59.340;18.040;2022-10-16T05:01:23;12.50;99.90
12130;DHT22;6128;59.340;18.040;2022-10-16T05:03:50;12.50;99.90
12130;DHT22;6128;59.340;18.040;2022-10-16T05:06:19;12.50;99.90
12130;DHT22;6128;59.340;18.040;2022-10-16T05:08:48;12.50;99.90
12130;DHT22;6128;59.340;18.040;2022-10-16T05:11:19;12.50;99.90
12130;DHT22;6128;59.340;18.040;2022-10-16T05:13:46;12.50;99.90
12130;DHT22;6128;59.340;18.040;2022-10-16T05:16:13;12.50;99.90
12130;DHT22;6128;59.340;18.040;2022-10-16T05:18:40;12.50;99.90
12130;DHT22;6128;59.340;18.040;2022-10-16T05:21:08;12.50;99.90
12130;DHT22;6128;59.340;18.040;2022-10-16T05:23:36;12.50;99.90
12130;DHT22;6128;59.340;18.040;2022-10-16T05:26:03;12.50;99.90
12130;DHT22;6128;59.340;18.040;2022-10-16T05:28:30;12.50;99.90
12130;DHT22;6128;59.340;18.040;2022-10-16T05:30:58;12.50;99.90
12130;DHT22;6128;59.340;18.040;2022-10-16T05:33:26;12.50;99.90
12130;DHT22;6128;59.340;18.040;2022-10-16T05:35:53;12.50;99.90
12130;DHT22;6128;59.340;18.040;2022-10-16T05:38:19;12.50;99.90
12130;DHT22;6128;59.340;18.040;2022-10-16T05:40:52;12.50;99.90
12130;DHT22;6128;59.340;18.040;2022-10-16T05:43:19;12.50;99.90
12130;DHT22;6128;59.340;18.040;2022-10-16T05:45:54;12.60;99.90
12130;DHT22;6128;59.340;18.040;2022-10-16T05:48:21;12.50;99.90
12130;DHT22;6128;59.340;18.040;2022-10-16T05:50:55;12.60;99.90
12130;DHT22;6128;59.340;18.040;2022-10-16T05:53:22;12.60;99.90
12130;DHT22;6128;59.340;18.040;2022-10-16T05:55:56;12.50;99.90
12130;DHT22;6128;59.340;18.040;2022-10-16T05:58:25;12.60;99.90
12130;DHT22;6128;59.340;18.040;2022-10-16T06:00:55;12.60;99.90
12130;DHT22;6128;59.340;18.040;2022-10-16T06:03:22;12.60;99.90
12130;DHT22;6128;59.340;18.040;2022-10-16T06:05:50;12.60;99.90
12130;DHT22;6128;59.340;18.040;2022-10-16T06:08:17;12.60;99.90
12130;DHT22;6128;59.340;18.040;2022-10-16T06:10:44;12.70;99.90
12130;DHT22;6128;59.340;18.040;2022-10-16T06:13:14;12.70;99.90
12130;DHT22;6128;59.340;18.040;2022-10-16T06:15:42;12.70;99.90
12130;DHT22;6128;59.340;18.040;2022-10-16T06:18:09;12.70;99.90
12130;DHT22;6128;59.340;18.040;2022-10-16T06:20:36;12.70;99.90
12130;DHT22;6128;59.340;18.040;2022-10-16T06:23:04;12.70;99.90
12130;DHT22;6128;59.340;18.040;2022-10-16T06:25:31;12.70;99.90
12130;DHT22;6128;59.340;18.040;2022-10-16T06:27:58;12.80;99.90
12130;DHT22;6128;59.340;18.040;2022-10-16T06:30:27;12.80;99.90
12130;DHT22;6128;59.340;18.040;2022-10-16T06:32:54;12.80;99.90
12130;DHT22;6128;59.340;18.040;2022-10-16T06:35:21;12.90;99.90
12130;DHT22;6128;59.340;18.040;2022-10-16T06:37:48;12.90;99.90
12130;DHT22;6128;59.340;18.040;2022-10-16T06:40:15;12.90;99.90
12130;DHT22;6128;59.340;18.040;2022-10-16T06:42:42;13.00;99.90
12130;DHT22;6128;59.340;18.040;2022-10-16T06:45:10;13.00;99.90
12130;DHT22;6128;59.340;18.040;2022-10-16T06:47:40;13.00;99.90
12130;DHT22;6128;59.340;18.040;2022-10-16T06:50:08;13.10;99.90
12130;DHT22;6128;59.340;18.040;2022-10-16T06:52:35;13.10;99.90
12130;DHT22;6128;59.340;18.040;2022-10-16T06:55:02;13.10;99.90
12130;DHT22;6128;59.340;18.040;2022-10-16T06:57:29;13.10;99.90
12130;DHT22;6128;59.340;18.040;2022-10-16T06:59:56;13.20;99.90
12130;DHT22;6128;59.340;18.040;2022-10-16T07:02:24;13.20;99.90
12130;DHT22;6128;59.340;18.040;2022-10-16T07:04:52;13.20;99.90
12130;DHT22;6128;59.340;18.040;2022-10-16T07:07:19;13.30;99.90
12130;DHT22;6128;59.340;18.040;2022-10-16T07:09:46;13.30;99.90
12130;DHT22;6128;59.340;18.040;2022-10-16T07:12:13;13.30;99.90
12130;DHT22;6128;59.340;18.040;2022-10-16T07:14:40;13.40;99.90
12130;DHT22;6128;59.340;18.040;2022-10-16T07:17:07;13.40;99.90
12130;DHT22;6128;59.340;18.040;2022-10-16T07:19:34;13.40;99.90
12130;DHT22;6128;59.340;18.040;2022-10-16T07:22:02;13.50;99.90
12130;DHT22;6128;59.340;18.040;2022-10-16T07:24:30;13.50;99.90
12130;DHT22;6128;59.340;18.040;2022-10-16T07:26:57;13.40;99.90
12130;DHT22;6128;59.340;18.040;2022-10-16T07:29:24;13.50;99.90
12130;DHT22;6128;59.340;18.040;2022-10-16T07:31:51;13.50;99.90
12130;DHT22;6128;59.340;18.040;2022-10-16T07:34:19;13.50;99.90
12130;DHT22;6128;59.340;18.040;2022-10-16T07:36:48;13.50;99.90
12130;DHT22;6128;59.340;18.040;2022-10-16T07:39:16;13.50;99.90
12130;DHT22;6128;59.340;18.040;2022-10-16T07:41:43;13.50;99.90
12130;DHT22;6128;59.340;18.040;2022-10-16T07:44:10;13.50;99.90
12130;DHT22;6128;59.340;18.040;2022-10-16T07:46:37;13.60;99.90
12130;DHT22;6128;59.340;18.040;2022-10-16T07:49:04;13.60;99.90
12130;DHT22;6128;59.340;18.040;2022-10-16T07:51:32;13.60;99.90
12130;DHT22;6128;59.340;18.040;2022-10-16T07:53:59;13.60;99.90
12130;DHT22;6128;59.340;18.040;2022-10-16T07:56:31;13.60;99.90
12130;DHT22;6128;59.340;18.040;2022-10-16T07:58:58;13.60;99.90
12130;DHT22;6128;59.340;18.040;2022-10-16T08:01:25;13.60;99.90
12130;DHT22;6128;59.340;18.040;2022-10-16T08:03:52;13.50;99.90
12130;DHT22;6128;59.340;18.040;2022-10-16T08:06:20;13.60;99.90
12130;DHT22;6128;59.340;18.040;2022-10-16T08:08:48;13.60;99.90
12130;DHT22;6128;59.340;18.040;2022-10-16T08:11:15;13.60;99.90
12130;DHT22;6128;59.340;18.040;2022-10-16T08:13:44;13.60;99.90
12130;DHT22;6128;59.340;18.040;2022-10-16T08:16:11;13.60;99.90
12130;DHT22;6128;59.340;18.040;2022-10-16T08:18:39;13.60;99.90
12130;DHT22;6128;59.340;18.040;2022-10-16T08:21:07;13.60;99.90
12130;DHT22;6128;59.340;18.040;2022-10-16T08:23:34;13.60;99.90
12130;DHT22;6128;59.340;18.040;2022-10-16T08:26:06;13.60;99.90
12130;DHT22;6128;59.340;18.040;2022-10-16T08:28:34;13.60;99.90
12130;DHT22;6128;59.340;18.040;2022-10-16T08:31:08;13.60;99.90
12130;DHT22;6128;59.340;18.040;2022-10-16T08:33:35;13.60;99.90
12130;DHT22;6128;59.340;18.040;2022-10-16T08:36:03;13.60;99.90
12130;DHT22;6128;59.340;18.040;2022-10-16T08:38:30;13.60;99.90
12130;DHT22;6128;59.340;18.040;2022-10-16T08:41:08;13.60;99.90
12130;DHT22;6128;59.340;18.040;2022-10-16T08:43:49;13.60;99.90
12130;DHT22;6128;59.340;18.040;2022-10-16T08:46:34;13.60;99.90
12130;DHT22;6128;59.340;18.040;2022-10-16T08:49:09;13.60;99.90
12130;DHT22;6128;59.340;18.040;2022-10-16T08:51:38;13.60;99.90
12130;DHT22;6128;59.340;18.040;2022-10-16T08:54:14;13.70;99.90
12130;DHT22;6128;59.340;18.040;2022-10-16T08:56:42;13.70;99.90
12130;DHT22;6128;59.340;18.040;2022-10-16T08:59:10;13.70;99.90
12130;DHT22;6128;59.340;18.040;2022-10-16T09:01:41;13.70;99.90
12130;DHT22;6128;59.340;18.040;2022-10-16T09:07:24;13.70;99.90
12130;DHT22;6128;59.340;18.040;2022-10-16T09:10:09;13.70;99.90
12130;DHT22;6128;59.340;18.040;2022-10-16T09:12:44;13.70;99.90
12130;DHT22;6128;59.340;18.040;2022-10-16T09:15:23;13.70;99.90
12130;DHT22;6128;59.340;18.040;2022-10-16T09:17:58;13.70;99.90
12130;DHT22;6128;59.340;18.040;2022-10-16T09:20:50;13.70;99.90
12130;DHT22;6128;59.340;18.040;2022-10-16T09:23:19;13.80;99.90
12130;DHT22;6128;59.340;18.040;2022-10-16T09:25:49;13.90;99.90
12130;DHT22;6128;59.340;18.040;2022-10-16T09:28:17;14.00;99.90
12130;DHT22;6128;59.340;18.040;2022-10-16T09:30:45;14.00;99.90
12130;DHT22;6128;59.340;18.040;2022-10-16T09:33:17;14.10;99.90
12130;DHT22;6128;59.340;18.040;2022-10-16T09:35:45;14.10;99.90
12130;DHT22;6128;59.340;18.040;2022-10-16T09:38:25;14.10;99.90
12130;DHT22;6128;59.340;18.040;2022-10-16T09:40:54;14.10;99.90
12130;DHT22;6128;59.340;18.040;2022-10-16T09:43:24;14.10;99.90
12130;DHT22;6128;59.340;18.040;2022-10-16T09:45:54;14.10;99.90
12130;DHT22;6128;59.340;18.040;2022-10-16T09:48:25;14.10;99.90
12130;DHT22;6128;59.340;18.040;2022-10-16T09:50:56;14.10;99.90
12130;DHT22;6128;59.340;18.040;2022-10-16T09:53:24;14.10;99.90
12130;DHT22;6128;59.340;18.040;2022-10-16T09:55:53;14.20;99.90
12130;DHT22;6128;59.340;18.040;2022-10-16T09:58:22;14.30;99.90
12130;DHT22;6128;59.340;18.040;2022-10-16T10:00:52;14.30;99.90
12130;DHT22;6128;59.340;18.040;2022-10-16T10:03:35;14.30;99.90
12130;DHT22;6128;59.340;18.040;2022-10-16T10:06:17;14.30;99.90
12130;DHT22;6128;59.340;18.040;2022-10-16T10:08:59;14.30;99.90
12130;DHT22;6128;59.340;18.040;2022-10-16T10:11:44;14.30;99.90
12130;DHT22;6128;59.340;18.040;2022-10-16T10:14:24;14.40;99.90
12130;DHT22;6128;59.340;18.040;2022-10-16T10:16:52;14.40;99.90
12130;DHT22;6128;59.340;18.040;2022-10-16T10:19:29;14.40;99.90
12130;DHT22;6128;59.340;18.040;2022-10-16T10:21:56;14.50;99.90
12130;DHT22;6128;59.340;18.040;2022-10-16T10:24:23;14.40;99.90
12130;DHT22;6128;59.340;18.040;2022-10-16T10:26:55;14.50;99.90
12130;DHT22;6128;59.340;18.040;2022-10-16T10:29:32;14.50;99.90
12130;DHT22;6128;59.340;18.040;2022-10-16T10:32:17;14.50;99.90
12130;DHT22;6128;59.340;18.040;2022-10-16T10:35:00;14.60;99.90
12130;DHT22;6128;59.340;18.040;2022-10-16T10:37:42;14.60;99.90
12130;DHT22;6128;59.340;18.040;2022-10-16T10:40:22;14.60;99.90
12130;DHT22;6128;59.340;18.040;2022-10-16T10:42:54;14.60;99.90
12130;DHT22;6128;59.340;18.040;2022-10-16T10:45:27;14.60;99.90
12130;DHT22;6128;59.340;18.040;2022-10-16T10:48:18;14.60;99.90
12130;DHT22;6128;59.340;18.040;2022-10-16T10:50:51;14.70;99.90
12130;DHT22;6128;59.340;18.040;2022-10-16T10:53:29;14.70;99.90
12130;DHT22;6128;59.340;18.040;2022-10-16T10:56:07;14.80;99.90
12130;DHT22;6128;59.340;18.040;2022-10-16T10:59:02;14.80;99.90
12130;DHT22;6128;59.340;18.040;2022-10-16T11:01:41;14.90;99.90
12130;DHT22;6128;59.340;18.040;2022-10-16T11:07:15;15.00;99.90
12130;DHT22;6128;59.340;18.040;2022-10-16T11:09:47;14.90;99.90
12130;DHT22;6128;59.340;18.040;2022-10-16T11:12:19;14.90;99.90
12130;DHT22;6128;59.340;18.040;2022-10-16T11:14:49;14.80;99.90
12130;DHT22;6128;59.340;18.040;2022-10-16T11:17:22;14.80;99.90
12130;DHT22;6128;59.340;18.040;2022-10-16T11:19:55;14.80;99.90
12130;DHT22;6128;59.340;18.040;2022-10-16T11:22:29;14.80;99.90
12130;DHT22;6128;59.340;18.040;2022-10-16T11:25:02;14.80;99.90
12130;DHT22;6128;59.340;18.040;2022-10-16T11:27:37;14.80;99.90
12130;DHT22;6128;59.340;18.040;2022-10-16T11:30:12;15.00;99.90
12130;DHT22;6128;59.340;18.040;2022-10-16T11:32:56;15.10;99.90
12130;DHT22;6128;59.340;18.040;2022-10-16T11:35:28;15.20;99.90
12130;DHT22;6128;59.340;18.040;2022-10-16T11:38:02;15.20;99.90
12130;DHT22;6128;59.340;18.040;2022-10-16T11:40:37;15.20;99.90
12130;DHT22;6128;59.340;18.040;2022-10-16T11:43:25;15.20;99.90
12130;DHT22;6128;59.340;18.040;2022-10-16T11:45:56;15.30;99.90
12130;DHT22;6128;59.340;18.040;2022-10-16T11:48:30;15.30;99.90
12130;DHT22;6128;59.340;18.040;2022-10-16T11:51:08;15.20;99.90
12130;DHT22;6128;59.340;18.040;2022-10-16T11:53:47;15.10;99.90
12130;DHT22;6128;59.340;18.040;2022-10-16T11:56:20;15.00;99.90
12130;DHT22;6128;59.340;18.040;2022-10-16T11:58:55;14.90;99.90
12130;DHT22;6128;59.340;18.040;2022-10-16T12:01:30;14.90;99.90
12130;DHT22;6128;59.340;18.040;2022-10-16T12:04:11;14.90;99.90
12130;DHT22;6128;59.340;18.040;2022-10-16T12:06:44;15.00;99.90
12130;DHT22;6128;59.340;18.040;2022-10-16T12:09:21;15.00;99.90
12130;DHT22;6128;59.340;18.040;2022-10-16T12:11:48;15.20;99.90
12130;DHT22;6128;59.340;18.040;2022-10-16T12:14:34;15.20;99.90
12130;DHT22;6128;59.340;18.040;2022-10-16T12:17:03;15.20;99.90
12130;DHT22;6128;59.340;18.040;2022-10-16T12:19:32;15.20;99.90
12130;DHT22;6128;59.340;18.040;2022-10-16T12:22:01;15.30;99.90
12130;DHT22;6128;59.340;18.040;2022-10-16T12:24:35;15.20;99.90
12130;DHT22;6128;59.340;18.040;2022-10-16T12:27:04;15.30;99.90
12130;DHT22;6128;59.340;18.040;2022-10-16T12:29:35;15.30;99.90
12130;DHT22;6128;59.340;18.040;2022-10-16T12:32:04;15.20;99.90
12130;DHT22;6128;59.340;18.040;2022-10-16T12:34:38;15.20;99.90
12130;DHT22;6128;59.340;18.040;2022-10-16T12:37:12;15.20;99.90
12130;DHT22;6128;59.340;18.040;2022-10-16T12:39:41;15.10;99.90
12130;DHT22;6128;59.340;18.040;2022-10-16T12:42:22;15.00;99.90
12130;DHT22;6128;59.340;18.040;2022-10-16T12:44:49;15.00;99.90
12130;DHT22;6128;59.340;18.040;2022-10-16T12:47:21;14.90;99.90
12130;DHT22;6128;59.340;18.040;2022-10-16T12:49:50;14.90;99.90
12130;DHT22;6128;59.340;18.040;2022-10-16T12:52:26;14.80;99.90
12130;DHT22;6128;59.340;18.040;2022-10-16T12:54:58;14.80;99.90
12130;DHT22;6128;59.340;18.040;2022-10-16T12:57:41;14.80;99.90
12130;DHT22;6128;59.340;18.040;2022-10-16T13:00:17;14.70;99.90
12130;DHT22;6128;59.340;18.040;2022-10-16T13:06:00;14.70;99.90
12130;DHT22;6128;59.340;18.040;2022-10-16T13:08:39;14.70;99.90
12130;DHT22;6128;59.340;18.040;2022-10-16T13:11:19;14.70;99.90
12130;DHT22;6128;59.340;18.040;2022-10-16T13:14:10;14.70;99.90
12130;DHT22;6128;59.340;18.040;2022-10-16T13:16:49;14.70;99.90
12130;DHT22;6128;59.340;18.040;2022-10-16T13:19:24;14.70;99.90
12130;DHT22;6128;59.340;18.040;2022-10-16T13:22:02;14.70;99.90
12130;DHT22;6128;59.340;18.040;2022-10-16T13:24:42;14.80;99.90
12130;DHT22;6128;59.340;18.040;2022-10-16T13:27:21;14.80;99.90
12130;DHT22;6128;59.340;18.040;2022-10-16T13:29:53;14.90;99.90
12130;DHT22;6128;59.340;18.040;2022-10-16T13:32:21;14.90;99.90
12130;DHT22;6128;59.340;18.040;2022-10-16T13:34:49;14.90;99.90
12130;DHT22;6128;59.340;18.040;2022-10-16T13:37:18;14.90;99.90
12130;DHT22;6128;59.340;18.040;2022-10-16T13:39:46;14.90;99.90
12130;DHT22;6128;59.340;18.040;2022-10-16T13:42:18;14.80;99.90
12130;DHT22;6128;59.340;18.040;2022-10-16T13:44:51;14.80;99.90
12130;DHT22;6128;59.340;18.040;2022-10-16T13:47:20;14.80;99.90
12130;DHT22;6128;59.340;18.040;2022-10-16T13:49:59;14.70;99.90
12130;DHT22;6128;59.340;18.040;2022-10-16T13:52:26;14.70;99.90
12130;DHT22;6128;59.340;18.040;2022-10-16T13:54:53;14.70;99.90
12130;DHT22;6128;59.340;18.040;2022-10-16T13:57:24;14.70;99.90
12130;DHT22;6128;59.340;18.040;2022-10-16T13:59:51;14.60;99.90
12130;DHT22;6128;59.340;18.040;2022-10-16T14:02:22;14.70;99.90
12130;DHT22;6128;59.340;18.040;2022-10-16T14:04:52;14.70;99.90
12130;DHT22;6128;59.340;18.040;2022-10-16T14:07:24;14.70;99.90
12130;DHT22;6128;59.340;18.040;2022-10-16T14:09:52;14.80;99.90
12130;DHT22;6128;59.340;18.040;2022-10-16T14:12:20;14.70;99.90
12130;DHT22;6128;59.340;18.040;2022-10-16T14:14:51;14.70;99.90
12130;DHT22;6128;59.340;18.040;2022-10-16T14:17:22;14.70;99.90
12130;DHT22;6128;59.340;18.040;2022-10-16T14:19:50;14.70;99.90
12130;DHT22;6128;59.340;18.040;2022-10-16T14:22:28;14.60;99.90
12130;DHT22;6128;59.340;18.040;2022-10-16T14:24:57;14.60;99.90
12130;DHT22;6128;59.340;18.040;2022-10-16T14:27:30;14.60;99.90
12130;DHT22;6128;59.340;18.040;2022-10-16T14:30:19;14.50;99.90
12130;DHT22;6128;59.340;18.040;2022-10-16T14:32:54;14.40;99.90
12130;DHT22;6128;59.340;18.040;2022-10-16T14:35:24;14.40;99.90
12130;DHT22;6128;59.340;18.040;2022-10-16T14:37:52;14.30;99.90
12130;DHT22;6128;59.340;18.040;2022-10-16T14:40:20;14.30;99.90
12130;DHT22;6128;59.340;18.040;2022-10-16T14:42:49;14.20;99.90
12130;DHT22;6128;59.340;18.040;2022-10-16T14:45:21;14.20;99.90
12130;DHT22;6128;59.340;18.040;2022-10-16T14:47:51;14.10;99.90
12130;DHT22;6128;59.340;18.040;2022-10-16T14:50:19;14.10;99.90
12130;DHT22;6128;59.340;18.040;2022-10-16T14:52:46;14.10;99.90
12130;DHT22;6128;59.340;18.040;2022-10-16T14:55:13;14.10;99.90
12130;DHT22;6128;59.340;18.040;2022-10-16T14:57:41;14.00;99.90
12130;DHT22;6128;59.340;18.040;2022-10-16T15:00:15;14.00;99.90
12130;DHT22;6128;59.340;18.040;2022-10-16T15:02:44;14.00;99.90
12130;DHT22;6128;59.340;18.040;2022-10-16T15:05:15;14.00;99.90
12130;DHT22;6128;59.340;18.040;2022-10-16T15:07:43;14.00;99.90
12130;DHT22;6128;59.340;18.040;2022-10-16T15:10:11;14.00;99.90
12130;DHT22;6128;59.340;18.040;2022-10-16T15:12:38;14.00;99.90
12130;DHT22;6128;59.340;18.040;2022-10-16T15:15:33;13.90;99.90
12130;DHT22;6128;59.340;18.040;2022-10-16T15:18:02;13.90;99.90
12130;DHT22;6128;59.340;18.040;2022-10-16T15:20:32;13.90;99.90
12130;DHT22;6128;59.340;18.040;2022-10-16T15:23:00;13.90;99.90
12130;DHT22;6128;59.340;18.040;2022-10-16T15:25:31;13.90;99.90
12130;DHT22;6128;59.340;18.040;2022-10-16T15:28:00;13.90;99.90
12130;DHT22;6128;59.340;18.040;2022-10-16T15:30:28;13.90;99.90
12130;DHT22;6128;59.340;18.040;2022-10-16T15:32:55;13.40;99.90
12130;DHT22;6128;59.340;18.040;2022-10-16T15:35:24;12.90;99.90
12130;DHT22;6128;59.340;18.040;2022-10-16T15:37:51;12.50;99.90
12130;DHT22;6128;59.340;18.040;2022-10-16T15:40:19;12.20;99.90
12130;DHT22;6128;59.340;18.040;2022-10-16T15:42:46;12.00;99.90
12130;DHT22;6128;59.340;18.040;2022-10-16T15:45:14;11.80;99.90
12130;DHT22;6128;59.340;18.040;2022-10-16T15:47:41;11.70;99.90
12130;DHT22;6128;59.340;18.040;2022-10-16T15:50:10;11.60;99.90
12130;DHT22;6128;59.340;18.040;2022-10-16T15:52:49;11.60;99.90
12130;DHT22;6128;59.340;18.040;2022-10-16T15:55:17;11.60;99.90
12130;DHT22;6128;59.340;18.040;2022-10-16T15:57:45;11.50;99.90
12130;DHT22;6128;59.340;18.040;2022-10-16T16:00:14;11.50;99.90